Time;durP1;ratioP1;P1;durP2;ratioP2;P2;SDS_P1;SDS_P2;PMS_P1;PMS_P2;Temp;Humidity;BMP_temperature;BMP_pressure;BME280_temperature;BME280_humidity;BME280_pressure;Samples;Min_cycle;Max_cycle;Signal;HPM_P1;HPM_P2
2021/12/10 00:00:59;;;;;;;35.92;22.65;;;4.90;99.90;;;;;;5073871;28;20036;-80
2021/12/10 00:03:30;;;;;;;32.15;23.75;;;5.00;99.90;;;;;;5073907;28;20058;-74
2021/12/10 00:06:04;;;;;;;33.13;23.00;;;5.00;99.90;;;;;;5091035;28;20048;-86
2021/12/10 00:08:34;;;;;;;33.17;22.73;;;5.00;99.90;;;;;;5090623;28;20048;-86
2021/12/10 00:11:03;;;;;;;34.53;23.70;;;5.00;99.90;;;;;;5073847;28;20052;-85
2021/12/10 00:13:29;;;;;;;34.15;22.92;;;5.00;99.90;;;;;;5090491;28;20134;-86
2021/12/10 00:15:56;;;;;;;28.25;20.00;;;5.00;99.90;;;;;;5090741;28;20127;-74
2021/12/10 00:18:29;;;;;;;36.30;21.05;;;5.00;99.90;;;;;;5090559;28;20032;-83
2021/12/10 00:20:58;;;;;;;26.92;20.13;;;5.00;99.90;;;;;;5074802;28;20369;-89
2021/12/10 00:23:29;;;;;;;33.97;17.45;;;5.00;99.90;;;;;;5091581;28;20070;-90
2021/12/10 00:25:55;;;;;;;30.67;19.65;;;5.00;99.90;;;;;;5092316;28;20044;-90
2021/12/10 00:28:25;;;;;;;28.25;18.75;;;5.00;99.90;;;;;;5078541;28;20068;-90
2021/12/10 00:31:44;;;;;;;31.42;19.10;;;5.00;99.90;;;;;;5076700;28;20047;-88
2021/12/10 00:34:11;;;;;;;27.50;18.02;;;4.90;99.90;;;;;;5091104;28;20392;-88
2021/12/10 00:36:38;;;;;;;28.38;18.70;;;4.70;99.90;;;;;;5074650;28;20047;-90
2021/12/10 00:39:07;;;;;;;29.17;19.58;;;4.60;99.90;;;;;;5091977;28;20400;-85
2021/12/10 00:41:33;;;;;;;32.10;19.48;;;4.50;99.90;;;;;;5073149;28;20040;-88
2021/12/10 00:44:01;;;;;;;29.08;18.42;;;4.50;99.90;;;;;;5072468;28;20177;-87
2021/12/10 00:46:27;;;;;;;30.80;18.00;;;4.40;99.90;;;;;;5073285;28;20044;-86
2021/12/10 00:48:53;;;;;;;30.80;18.83;;;4.40;99.90;;;;;;5073585;28;20104;-82
2021/12/10 00:51:19;;;;;;;25.15;18.38;;;4.40;99.90;;;;;;5085906;28;20048;-85
2021/12/10 00:53:44;;;;;;;31.38;18.73;;;4.30;99.90;;;;;;5089989;28;20036;-82
2021/12/10 00:56:11;;;;;;;31.08;19.52;;;4.30;99.90;;;;;;5089265;28;20044;-85
2021/12/10 00:58:39;;;;;;;30.60;18.27;;;4.20;99.90;;;;;;5073354;28;20044;-90
2021/12/10 01:01:08;;;;;;;28.08;18.40;;;4.30;99.90;;;;;;5073213;28;20044;-83
2021/12/10 01:03:45;;;;;;;32.20;18.02;;;4.30;99.90;;;;;;5071744;28;20384;-85
2021/12/10 01:06:14;;;;;;;28.92;17.10;;;4.30;99.90;;;;;;5052719;28;20389;-83
2021/12/10 01:09:09;;;;;;;23.40;17.52;;;4.30;99.90;;;;;;5082862;28;20052;-82
2021/12/10 01:11:42;;;;;;;22.75;16.27;;;4.40;99.90;;;;;;5085789;28;20090;-81
2021/12/10 01:14:21;;;;;;;26.08;16.27;;;4.40;99.90;;;;;;5103230;28;20048;-81
2021/12/10 01:25:12;;;;;;;25.55;16.25;;;4.60;99.90;;;;;;5079649;28;20075;-81
2021/12/10 01:27:42;;;;;;;25.67;14.50;;;4.70;99.90;;;;;;5093372;28;20086;-81
2021/12/10 01:30:24;;;;;;;21.77;14.07;;;4.70;99.90;;;;;;5076391;28;20561;-81
2021/12/10 01:32:57;;;;;;;22.67;13.90;;;4.70;99.90;;;;;;5090713;28;20131;-82
2021/12/10 01:35:27;;;;;;;21.90;13.00;;;4.70;99.90;;;;;;5093308;28;20553;-81
2021/12/10 01:37:55;;;;;;;20.42;14.50;;;4.70;99.90;;;;;;5092400;28;20068;-81
2021/12/10 01:40:24;;;;;;;23.35;13.40;;;4.70;99.90;;;;;;5092573;28;20043;-81
2021/12/10 01:42:52;;;;;;;18.20;12.88;;;4.70;99.90;;;;;;5076713;28;20048;-81
2021/12/10 01:45:24;;;;;;;21.75;14.20;;;4.70;99.90;;;;;;5079634;28;20044;-83
2021/12/10 01:48:02;;;;;;;23.63;14.85;;;4.80;99.90;;;;;;5095557;28;20075;-82
2021/12/10 01:50:29;;;;;;;19.77;14.20;;;4.80;99.90;;;;;;5095524;28;20501;-81
2021/12/10 01:52:57;;;;;;;24.05;14.50;;;4.80;99.90;;;;;;5078081;28;20084;-81
2021/12/10 01:55:25;;;;;;;22.92;14.23;;;4.80;99.90;;;;;;5095988;28;20043;-80
2021/12/10 01:57:53;;;;;;;25.85;15.32;;;4.80;99.90;;;;;;5096344;28;20043;-87
2021/12/10 02:00:23;;;;;;;21.75;14.60;;;4.80;99.90;;;;;;5078875;28;20039;-86
2021/12/10 02:02:49;;;;;;;20.05;15.30;;;4.80;99.90;;;;;;5097084;28;20036;-88
2021/12/10 02:05:17;;;;;;;22.80;14.63;;;4.90;99.90;;;;;;5080406;28;20503;-87
2021/12/10 02:07:44;;;;;;;22.38;13.75;;;4.80;99.90;;;;;;5096751;28;20066;-88
2021/12/10 02:10:12;;;;;;;24.05;14.30;;;4.80;99.90;;;;;;5096938;28;20403;-84
2021/12/10 02:12:38;;;;;;;21.67;14.82;;;4.80;99.90;;;;;;5079773;28;20092;-85
2021/12/10 02:15:06;;;;;;;22.58;14.18;;;4.80;99.90;;;;;;5080209;28;20032;-82
2021/12/10 02:17:36;;;;;;;22.95;14.80;;;4.80;99.90;;;;;;5097093;28;20089;-88
2021/12/10 02:20:12;;;;;;;20.02;15.27;;;4.80;99.90;;;;;;5079857;28;20076;-86
2021/12/10 02:22:38;;;;;;;20.00;14.38;;;4.80;99.90;;;;;;5095514;28;20042;-89
2021/12/10 02:25:05;;;;;;;20.65;14.52;;;4.70;99.90;;;;;;5073819;28;20060;-86
2021/12/10 02:27:32;;;;;;;22.60;14.10;;;4.80;99.90;;;;;;5084688;28;20399;-84
2021/12/10 02:29:58;;;;;;;21.52;13.68;;;4.70;99.90;;;;;;5078727;28;20564;-86
2021/12/10 02:32:26;;;;;;;20.60;13.48;;;4.70;99.90;;;;;;5078736;28;20090;-85
2021/12/10 02:34:53;;;;;;;21.80;14.55;;;4.70;99.90;;;;;;5077853;28;20054;-84
2021/12/10 02:37:21;;;;;;;24.55;15.05;;;4.70;99.90;;;;;;5095509;28;20035;-86
2021/12/10 02:39:46;;;;;;;22.23;14.82;;;4.80;99.90;;;;;;5078676;28;20040;-90
2021/12/10 02:42:12;;;;;;;21.67;14.50;;;4.90;99.90;;;;;;5096224;28;20062;-87
2021/12/10 02:44:40;;;;;;;19.50;12.05;;;4.70;99.90;;;;;;5079364;28;20048;-87
2021/12/10 02:47:06;;;;;;;18.50;12.13;;;4.70;99.90;;;;;;5096052;28;20057;-86
2021/12/10 02:49:32;;;;;;;19.45;11.43;;;4.70;99.90;;;;;;5093293;28;20044;-86
2021/12/10 02:51:58;;;;;;;23.65;11.43;;;4.70;99.90;;;;;;5095634;28;20123;-85
2021/12/10 02:54:33;;;;;;;19.90;12.40;;;4.70;99.90;;;;;;5095556;28;20075;-86
2021/12/10 02:57:03;;;;;;;18.92;11.55;;;4.60;99.90;;;;;;5077959;28;20422;-88
2021/12/10 02:59:29;;;;;;;22.73;11.98;;;4.60;99.90;;;;;;5076785;28;20040;-88
2021/12/10 03:01:55;;;;;;;17.48;11.73;;;4.60;99.90;;;;;;5093260;28;20059;-89
2021/12/10 03:04:21;;;;;;;16.98;12.10;;;4.60;99.90;;;;;;5059745;28;20446;-89
2021/12/10 03:06:57;;;;;;;19.05;11.63;;;4.60;99.90;;;;;;5082775;28;20036;-73
2021/12/10 03:09:25;;;;;;;21.13;12.10;;;4.60;99.90;;;;;;5096562;28;20073;-89
2021/12/10 03:11:53;;;;;;;16.58;11.27;;;4.50;99.90;;;;;;5079027;28;20036;-86
2021/12/10 03:14:25;;;;;;;17.58;10.70;;;4.50;99.90;;;;;;5078622;28;20047;-87
2021/12/10 03:17:38;;;;;;;17.23;11.68;;;4.50;99.90;;;;;;5095067;28;20051;-90
2021/12/10 03:20:19;;;;;;;14.32;10.30;;;4.50;99.90;;;;;;5085748;28;20048;-88
2021/12/10 03:22:47;;;;;;;22.20;11.95;;;4.50;99.90;;;;;;5094478;28;20039;-82
2021/12/10 03:25:15;;;;;;;17.23;11.98;;;4.40;99.90;;;;;;5090131;28;20076;-83
2021/12/10 03:27:42;;;;;;;19.17;11.18;;;4.50;99.90;;;;;;5099902;28;20044;-85
2021/12/10 03:30:10;;;;;;;18.27;10.75;;;4.40;99.90;;;;;;5082127;28;20043;-85
2021/12/10 03:32:39;;;;;;;16.55;10.48;;;4.40;99.90;;;;;;5077551;28;20085;-76
2021/12/10 03:35:13;;;;;;;19.73;11.35;;;4.30;99.90;;;;;;5094520;28;20051;-81
2021/12/10 03:37:41;;;;;;;21.48;11.10;;;4.20;99.90;;;;;;5094361;28;20402;-84
2021/12/10 03:40:10;;;;;;;21.55;11.45;;;4.20;99.90;;;;;;5094326;28;20040;-88
2021/12/10 03:42:36;;;;;;;14.20;9.88;;;4.10;99.90;;;;;;5095344;28;20495;-78
2021/12/10 03:45:03;;;;;;;16.70;10.65;;;4.10;99.90;;;;;;5080364;28;20097;-86
2021/12/10 03:47:29;;;;;;;15.32;10.38;;;4.00;99.90;;;;;;5076851;28;20519;-86
2021/12/10 03:49:55;;;;;;;17.40;11.00;;;3.90;99.90;;;;;;5086274;28;20043;-86
2021/12/10 03:52:21;;;;;;;16.52;11.35;;;3.80;99.90;;;;;;5098106;28;20040;-86
2021/12/10 03:54:47;;;;;;;15.93;10.65;;;3.70;99.90;;;;;;5103437;28;20046;-84
2021/12/10 03:57:13;;;;;;;16.55;9.90;;;3.70;99.90;;;;;;5076484;28;20490;-84
2021/12/10 03:59:39;;;;;;;17.27;11.30;;;3.60;99.90;;;;;;5079815;28;20043;-88
2021/12/10 04:02:07;;;;;;;17.17;11.45;;;3.60;99.90;;;;;;5088905;28;20035;-78
2021/12/10 04:04:46;;;;;;;15.90;10.70;;;3.50;99.90;;;;;;5089090;28;20052;-88
2021/12/10 04:07:20;;;;;;;15.02;10.63;;;3.40;99.90;;;;;;5099652;28;20120;-85
2021/12/10 04:09:47;;;;;;;17.77;11.27;;;3.30;99.90;;;;;;5073603;28;20085;-81
2021/12/10 04:12:13;;;;;;;17.63;11.70;;;3.30;99.90;;;;;;5072584;28;20104;-81
2021/12/10 04:14:41;;;;;;;15.85;10.25;;;3.20;99.90;;;;;;5093023;28;20507;-85
2021/12/10 04:17:08;;;;;;;17.75;11.27;;;3.20;99.90;;;;;;5093395;28;20475;-84
2021/12/10 04:19:36;;;;;;;19.13;11.15;;;3.10;99.90;;;;;;5073873;28;20042;-88
2021/12/10 04:22:06;;;;;;;16.00;10.60;;;3.10;99.90;;;;;;5063859;28;20446;-83
2021/12/10 04:24:37;;;;;;;22.13;12.73;;;3.00;99.90;;;;;;5076807;28;20083;-86
2021/12/10 04:27:05;;;;;;;16.50;12.48;;;3.00;99.90;;;;;;5093559;28;20074;-86
2021/12/10 04:29:31;;;;;;;16.83;11.20;;;2.90;99.90;;;;;;5076178;28;20060;-86
2021/12/10 04:31:58;;;;;;;17.23;11.65;;;2.90;99.90;;;;;;5076784;28;20547;-86
2021/12/10 04:34:24;;;;;;;19.70;11.75;;;2.90;99.90;;;;;;5092628;28;20445;-88
2021/12/10 04:36:52;;;;;;;19.15;12.05;;;2.90;99.90;;;;;;5092666;28;20511;-85
2021/12/10 04:39:19;;;;;;;15.98;11.82;;;2.90;99.90;;;;;;5076782;28;20036;-83
2021/12/10 04:41:45;;;;;;;22.58;13.35;;;2.80;99.90;;;;;;5092114;28;20039;-80
2021/12/10 04:44:11;;;;;;;18.13;12.75;;;2.70;99.90;;;;;;5092949;28;20115;-83
2021/12/10 04:46:37;;;;;;;22.25;13.52;;;2.60;99.90;;;;;;5093208;28;20079;-83
2021/12/10 04:49:12;;;;;;;24.95;14.35;;;2.60;99.90;;;;;;5092215;28;20067;-83
2021/12/10 04:51:41;;;;;;;23.83;15.25;;;2.60;99.90;;;;;;5075992;28;20405;-83
2021/12/10 04:54:08;;;;;;;19.65;14.50;;;2.60;99.90;;;;;;5076401;28;20082;-84
2021/12/10 04:56:35;;;;;;;26.67;15.57;;;2.50;99.90;;;;;;5092154;28;20360;-83
2021/12/10 04:59:04;;;;;;;28.30;16.33;;;2.60;99.90;;;;;;5093461;28;20475;-76
2021/12/10 05:01:30;;;;;;;27.33;17.25;;;2.50;99.90;;;;;;5115722;28;20051;-78
2021/12/10 05:03:55;;;;;;;26.02;17.65;;;2.50;99.90;;;;;;5079457;28;20043;-82
2021/12/10 05:06:21;;;;;;;26.00;17.10;;;2.50;99.90;;;;;;5091388;28;20036;-74
2021/12/10 05:08:47;;;;;;;27.20;17.52;;;2.40;99.90;;;;;;5095252;28;20608;-82
2021/12/10 05:11:13;;;;;;;23.60;17.23;;;2.40;99.90;;;;;;5080015;28;20079;-82
2021/12/10 05:13:42;;;;;;;26.90;18.17;;;2.40;99.90;;;;;;5097228;28;20135;-83
2021/12/10 05:16:08;;;;;;;26.77;17.92;;;2.40;99.90;;;;;;5112182;28;20028;-84
2021/12/10 05:18:37;;;;;;;26.50;17.75;;;2.40;99.90;;;;;;5079074;28;20046;-83
2021/12/10 05:21:05;;;;;;;29.65;18.38;;;2.30;99.90;;;;;;5095890;28;20036;-83
2021/12/10 05:23:31;;;;;;;27.70;18.48;;;2.30;99.90;;;;;;5079340;28;20072;-82
2021/12/10 05:25:57;;;;;;;28.50;19.25;;;2.30;99.90;;;;;;5096351;28;20052;-84
2021/12/10 05:28:24;;;;;;;28.10;18.05;;;2.30;99.90;;;;;;5079806;28;20056;-83
2021/12/10 05:30:54;;;;;;;26.30;19.10;;;2.30;99.90;;;;;;5095967;28;20047;-82
2021/12/10 05:33:20;;;;;;;26.48;17.83;;;2.30;99.90;;;;;;5096773;28;20051;-83
2021/12/10 05:35:47;;;;;;;21.88;17.35;;;2.30;99.90;;;;;;5075661;28;20531;-83
2021/12/10 05:38:14;;;;;;;24.70;18.80;;;2.30;99.90;;;;;;5072869;28;20035;-83
2021/12/10 05:40:40;;;;;;;25.95;17.42;;;2.20;99.90;;;;;;5079754;28;20039;-85
2021/12/10 05:43:06;;;;;;;24.10;18.63;;;2.20;99.90;;;;;;5096226;28;20396;-84
2021/12/10 05:45:32;;;;;;;23.23;16.90;;;2.10;99.90;;;;;;5078815;28;20052;-81
2021/12/10 05:47:58;;;;;;;26.63;17.08;;;2.10;99.90;;;;;;5070426;28;20048;-79
2021/12/10 05:50:26;;;;;;;25.02;17.17;;;2.10;99.90;;;;;;5104577;28;20044;-85
2021/12/10 05:52:53;;;;;;;18.88;16.13;;;2.20;99.90;;;;;;5095254;28;20054;-85
2021/12/10 05:55:20;;;;;;;19.75;15.80;;;2.20;99.90;;;;;;5096261;28;20050;-87
2021/12/10 05:57:46;;;;;;;21.30;16.02;;;2.40;99.90;;;;;;5079738;28;20035;-85
2021/12/10 06:00:17;;;;;;;22.23;14.75;;;2.20;99.90;;;;;;5079581;28;20662;-88
2021/12/10 06:02:43;;;;;;;19.45;15.02;;;2.20;99.90;;;;;;5080101;28;20422;-83
2021/12/10 06:05:10;;;;;;;23.73;15.07;;;2.20;99.90;;;;;;5097094;28;20123;-82
2021/12/10 06:07:36;;;;;;;17.23;13.15;;;2.20;99.90;;;;;;5096440;28;20356;-83
2021/12/10 06:10:04;;;;;;;22.33;14.65;;;2.10;99.90;;;;;;5095902;28;20057;-82
2021/12/10 06:12:29;;;;;;;18.70;14.00;;;2.10;99.90;;;;;;5078612;28;20432;-85
2021/12/10 06:14:55;;;;;;;18.23;14.80;;;2.10;99.90;;;;;;5112266;28;20093;-82
2021/12/10 06:17:21;;;;;;;20.95;14.60;;;2.10;99.90;;;;;;5113971;28;20130;-83
2021/12/10 06:19:46;;;;;;;19.20;14.25;;;2.10;99.90;;;;;;5095344;28;20146;-84
2021/12/10 06:22:12;;;;;;;19.33;14.55;;;2.10;99.90;;;;;;5077922;28;20044;-84
2021/12/10 06:24:37;;;;;;;20.88;14.88;;;2.10;99.90;;;;;;5095860;28;20086;-82
2021/12/10 06:27:03;;;;;;;21.33;13.35;;;2.00;99.90;;;;;;5094771;28;20043;-80
2021/12/10 06:29:29;;;;;;;20.05;14.10;;;2.00;99.90;;;;;;5095539;28;20423;-82
2021/12/10 06:32:17;;;;;;;21.35;14.20;;;2.00;99.90;;;;;;5095902;28;20092;-90
2021/12/10 06:35:37;;;;;;;17.65;13.55;;;1.90;99.90;;;;;;5096039;28;20120;-87
2021/12/10 06:38:04;;;;;;;19.27;13.48;;;1.90;99.90;;;;;;5076133;28;20048;-84
2021/12/10 06:40:32;;;;;;;18.33;13.45;;;1.90;99.90;;;;;;5075456;28;20089;-81
2021/12/10 06:42:58;;;;;;;20.42;13.77;;;1.90;99.90;;;;;;5080464;28;20090;-84
2021/12/10 06:45:26;;;;;;;21.70;14.35;;;1.90;99.90;;;;;;5085751;28;20424;-86
2021/12/10 06:47:55;;;;;;;19.23;14.00;;;1.90;99.90;;;;;;5096239;28;20070;-87
2021/12/10 06:50:25;;;;;;;18.30;12.85;;;1.80;99.90;;;;;;5087565;28;20127;-87
2021/12/10 06:52:51;;;;;;;18.10;12.13;;;1.90;99.90;;;;;;5095850;28;20035;-86
2021/12/10 06:55:17;;;;;;;15.70;12.40;;;1.90;99.90;;;;;;5094961;28;20092;-84
2021/12/10 06:57:44;;;;;;;19.05;12.80;;;1.80;99.90;;;;;;5095823;28;20039;-88
2021/12/10 07:00:15;;;;;;;18.42;12.52;;;1.80;99.90;;;;;;5096702;28;20090;-89
2021/12/10 07:02:41;;;;;;;16.23;11.95;;;1.80;99.90;;;;;;5075174;28;20051;-88
2021/12/10 07:05:07;;;;;;;16.90;11.98;;;1.80;99.90;;;;;;5084675;28;20126;-77
2021/12/10 07:07:38;;;;;;;15.88;12.23;;;1.80;99.90;;;;;;5079495;28;20399;-89
2021/12/10 07:10:06;;;;;;;18.85;11.38;;;1.80;99.90;;;;;;5109860;28;20048;-84
2021/12/10 07:12:34;;;;;;;13.45;11.05;;;1.80;99.90;;;;;;5078986;28;20111;-81
2021/12/10 07:15:02;;;;;;;14.25;11.05;;;1.70;99.90;;;;;;5078604;28;20122;-89
2021/12/10 07:17:28;;;;;;;17.58;11.80;;;1.70;99.90;;;;;;5096238;28;20391;-89
2021/12/10 07:19:54;;;;;;;15.48;11.60;;;1.70;99.90;;;;;;5066732;28;20096;-89
2021/12/10 07:22:20;;;;;;;13.93;11.05;;;1.70;99.90;;;;;;5091640;28;20487;-86
2021/12/10 07:24:45;;;;;;;14.32;9.90;;;1.70;99.90;;;;;;5094971;28;20088;-89
2021/12/10 07:27:11;;;;;;;16.13;10.55;;;1.70;99.90;;;;;;5096411;28;20479;-90
2021/12/10 07:29:39;;;;;;;13.63;10.43;;;1.70;99.90;;;;;;5079535;28;20069;-87
2021/12/10 07:32:05;;;;;;;24.58;10.75;;;1.70;99.90;;;;;;5096198;28;20426;-87
2021/12/10 07:34:31;;;;;;;16.33;10.40;;;1.70;99.90;;;;;;5095703;28;20066;-89
2021/12/10 07:36:56;;;;;;;13.75;9.77;;;1.70;99.90;;;;;;5094741;28;20483;-87
2021/12/10 07:39:22;;;;;;;16.50;10.88;;;1.70;99.90;;;;;;5094686;28;20046;-89
2021/12/10 07:41:48;;;;;;;13.63;9.77;;;1.70;99.90;;;;;;5079055;28;20556;-88
2021/12/10 07:44:13;;;;;;;14.70;9.65;;;1.70;99.90;;;;;;5074123;28;20078;-86
2021/12/10 07:46:40;;;;;;;13.77;9.65;;;1.70;99.90;;;;;;5091019;28;20048;-87
2021/12/10 07:49:14;;;;;;;15.50;9.40;;;1.70;99.90;;;;;;5089972;28;20811;-83
2021/12/10 07:51:42;;;;;;;12.10;9.30;;;1.70;99.90;;;;;;5090111;28;20036;-81
2021/12/10 07:54:09;;;;;;;13.90;9.48;;;1.70;99.90;;;;;;5066846;28;20075;-75
2021/12/10 07:56:34;;;;;;;13.57;8.45;;;1.70;99.90;;;;;;5085230;28;20119;-87
2021/12/10 07:59:00;;;;;;;13.82;8.90;;;1.70;99.90;;;;;;5071741;28;20143;-87
2021/12/10 08:01:29;;;;;;;10.55;8.00;;;1.70;99.90;;;;;;5090860;28;20036;-75
2021/12/10 08:03:56;;;;;;;10.27;8.02;;;1.80;99.90;;;;;;5090508;28;20107;-84
2021/12/10 08:06:24;;;;;;;14.25;8.18;;;1.80;99.90;;;;;;5073815;28;20040;-81
2021/12/10 08:08:50;;;;;;;13.75;8.95;;;1.80;99.90;;;;;;5091111;28;20048;-91
2021/12/10 08:11:17;;;;;;;16.05;8.88;;;1.90;99.90;;;;;;5074447;28;20112;-76
2021/12/10 08:13:43;;;;;;;15.25;9.95;;;1.90;99.90;;;;;;5074086;28;20048;-74
2021/12/10 08:16:09;;;;;;;12.63;8.15;;;1.90;99.90;;;;;;5074077;28;20323;-88
2021/12/10 08:18:35;;;;;;;12.48;7.47;;;1.90;99.90;;;;;;5091864;28;20063;-88
2021/12/10 08:21:01;;;;;;;14.13;8.23;;;1.90;99.90;;;;;;5091443;28;20032;-89
2021/12/10 08:23:27;;;;;;;14.57;7.85;;;1.90;99.90;;;;;;5073666;28;20058;-89
2021/12/10 08:25:54;;;;;;;11.50;7.22;;;1.90;99.90;;;;;;5088880;28;20123;-88
2021/12/10 08:28:23;;;;;;;13.95;7.75;;;1.80;99.90;;;;;;5090175;28;20044;-87
2021/12/10 08:30:50;;;;;;;12.95;8.15;;;1.90;99.90;;;;;;5072786;28;20040;-82
2021/12/10 08:33:18;;;;;;;11.57;7.47;;;1.90;99.90;;;;;;5088320;28;20484;-89
2021/12/10 08:35:48;;;;;;;14.25;8.20;;;1.90;99.90;;;;;;5090648;28;20047;-84
2021/12/10 08:38:14;;;;;;;12.07;7.10;;;1.90;99.90;;;;;;5053995;28;20477;-76
2021/12/10 08:40:51;;;;;;;12.02;7.57;;;1.90;99.90;;;;;;5083594;28;20044;-81
2021/12/10 08:43:17;;;;;;;11.38;7.75;;;1.90;99.90;;;;;;5092753;28;20134;-80
2021/12/10 08:45:45;;;;;;;9.60;8.43;;;1.90;99.90;;;;;;5094295;28;20487;-88
2021/12/10 08:48:12;;;;;;;15.88;7.80;;;2.00;99.90;;;;;;5091881;28;20144;-91
2021/12/10 08:50:40;;;;;;;12.82;8.20;;;2.00;99.90;;;;;;5058504;28;20044;-87
2021/12/10 08:53:09;;;;;;;12.75;8.52;;;2.00;99.90;;;;;;5071652;28;20069;-90
2021/12/10 08:55:36;;;;;;;13.82;9.02;;;2.00;99.90;;;;;;5078006;28;20039;-90
2021/12/10 08:58:04;;;;;;;13.27;7.93;;;2.00;99.90;;;;;;5077264;28;20055;-82
2021/12/10 09:00:30;;;;;;;11.55;7.70;;;2.10;99.90;;;;;;5077224;28;20047;-81
2021/12/10 09:02:58;;;;;;;11.98;7.63;;;2.10;99.90;;;;;;5092042;28;20130;-80
2021/12/10 09:05:26;;;;;;;10.88;8.02;;;2.20;99.90;;;;;;5077286;28;20052;-91
2021/12/10 09:07:53;;;;;;;11.48;7.82;;;2.20;99.90;;;;;;5088078;28;20043;-87
2021/12/10 09:10:23;;;;;;;10.82;6.85;;;2.30;99.90;;;;;;5076245;28;20118;-89
2021/12/10 09:12:51;;;;;;;13.10;7.88;;;2.30;99.90;;;;;;5094338;28;20050;-89
2021/12/10 09:15:22;;;;;;;12.45;7.53;;;2.30;99.90;;;;;;5091957;28;20044;-89
2021/12/10 09:17:49;;;;;;;11.65;7.38;;;2.40;99.90;;;;;;5088948;28;20122;-89
2021/12/10 09:20:21;;;;;;;13.70;7.32;;;2.40;99.90;;;;;;5095084;28;20126;-90
2021/12/10 09:22:47;;;;;;;11.05;6.90;;;2.40;99.90;;;;;;5078248;28;20118;-88
2021/12/10 09:25:14;;;;;;;10.75;7.00;;;2.50;99.90;;;;;;5094753;28;20089;-89
2021/12/10 09:27:40;;;;;;;10.40;6.40;;;2.50;99.90;;;;;;5094419;28;20628;-87
2021/12/10 09:30:10;;;;;;;11.25;7.22;;;2.60;99.90;;;;;;5094057;28;20134;-89
2021/12/10 09:32:36;;;;;;;10.77;6.65;;;2.60;99.90;;;;;;5087378;28;20032;-88
2021/12/10 09:35:06;;;;;;;8.90;6.80;;;2.70;99.90;;;;;;5072482;28;20048;-87
2021/12/10 09:37:35;;;;;;;13.82;11.70;;;2.70;99.90;;;;;;5063944;28;20043;-89
2021/12/10 09:40:06;;;;;;;12.75;7.95;;;2.80;99.90;;;;;;5059321;28;20077;-87
2021/12/10 09:42:32;;;;;;;12.80;7.35;;;2.90;99.90;;;;;;5076006;28;20047;-91
2021/12/10 09:44:58;;;;;;;10.48;6.10;;;2.90;99.90;;;;;;5077239;28;20073;-78
2021/12/10 09:47:24;;;;;;;11.73;6.82;;;2.90;99.90;;;;;;5079382;28;20093;-90
2021/12/10 09:49:53;;;;;;;10.63;6.40;;;3.00;99.90;;;;;;5080827;28;20040;-85
2021/12/10 09:52:22;;;;;;;18.80;11.68;;;3.10;99.90;;;;;;5099049;28;20373;-86
2021/12/10 09:54:48;;;;;;;9.52;6.80;;;3.10;99.90;;;;;;5098837;28;20051;-87
2021/12/10 09:57:24;;;;;;;14.43;6.95;;;3.20;99.90;;;;;;5081559;28;20047;-91
2021/12/10 09:59:52;;;;;;;6.32;5.38;;;3.30;99.90;;;;;;5098709;28;20380;-87
2021/12/10 10:02:19;;;;;;;7.15;4.80;;;3.30;99.90;;;;;;5081726;28;20137;-89
2021/12/10 10:04:49;;;;;;;8.18;5.13;;;3.40;99.90;;;;;;5098385;28;20083;-73
2021/12/10 10:07:19;;;;;;;10.38;5.40;;;3.40;99.90;;;;;;5098511;28;20039;-89
2021/12/10 10:09:49;;;;;;;12.23;6.47;;;3.50;99.90;;;;;;5098673;28;20050;-88
2021/12/10 10:12:23;;;;;;;9.57;5.32;;;3.60;99.90;;;;;;5098385;28;20044;-89
2021/12/10 10:14:49;;;;;;;9.68;5.20;;;3.70;99.40;;;;;;5080284;28;20479;-86
2021/12/10 10:17:16;;;;;;;10.05;5.07;;;3.70;99.30;;;;;;5095911;28;20092;-87
2021/12/10 10:19:43;;;;;;;9.18;4.80;;;3.80;99.10;;;;;;5096595;28;20047;-73
2021/12/10 10:22:19;;;;;;;10.65;5.63;;;3.80;99.00;;;;;;5080672;28;20035;-87
2021/12/10 10:24:45;;;;;;;7.10;4.47;;;3.90;99.10;;;;;;5080500;28;20127;-91
2021/12/10 10:27:19;;;;;;;9.40;4.28;;;4.00;99.10;;;;;;5097753;28;20035;-88
2021/12/10 10:29:52;;;;;;;7.10;4.75;;;4.00;99.10;;;;;;5080700;28;20448;-88
2021/12/10 10:32:22;;;;;;;8.90;4.97;;;4.10;98.80;;;;;;5080586;28;20040;-89
2021/12/10 10:34:52;;;;;;;10.45;5.05;;;4.20;99.00;;;;;;5097716;28;20039;-89
2021/12/10 10:37:19;;;;;;;9.82;5.05;;;4.30;98.30;;;;;;5097823;28;20082;-87
2021/12/10 10:39:45;;;;;;;9.70;4.75;;;4.30;98.60;;;;;;5097004;28;20437;-88
2021/12/10 10:42:17;;;;;;;10.55;5.63;;;4.40;98.20;;;;;;5080790;28;20123;-90
2021/12/10 10:44:44;;;;;;;7.40;4.20;;;4.50;98.00;;;;;;5081016;28;20062;-90
2021/12/10 10:47:10;;;;;;;5.13;4.20;;;4.60;98.10;;;;;;5089765;28;20040;-90
2021/12/10 10:49:47;;;;;;;8.05;3.72;;;4.70;97.90;;;;;;5080808;28;20055;-89
2021/12/10 10:52:21;;;;;;;8.35;3.95;;;4.70;97.10;;;;;;5116128;28;20067;-92
2021/12/10 10:54:49;;;;;;;8.18;3.90;;;4.80;97.60;;;;;;5098990;28;20043;-90
2021/12/10 10:57:26;;;;;;;6.43;3.45;;;4.90;97.00;;;;;;5098349;28;20043;-91
2021/12/10 10:59:57;;;;;;;8.50;4.03;;;4.90;96.70;;;;;;5097387;28;20055;-89
2021/12/10 11:02:26;;;;;;;7.53;3.17;;;5.00;96.90;;;;;;5098558;28;20039;-90
2021/12/10 11:04:53;;;;;;;7.10;4.00;;;5.00;96.60;;;;;;5080330;28;20043;-91
2021/12/10 11:07:27;;;;;;;7.95;3.70;;;5.10;96.80;;;;;;5097933;28;20101;-92
2021/12/10 11:09:58;;;;;;;6.00;2.78;;;5.20;95.80;;;;;;5096755;28;20048;-90
2021/12/10 11:12:33;;;;;;;6.20;3.60;;;5.20;95.80;;;;;;5080929;28;20041;-90
2021/12/10 11:15:06;;;;;;;5.00;3.38;;;5.30;95.60;;;;;;5097674;28;20134;-78
2021/12/10 11:17:45;;;;;;;6.85;3.00;;;5.30;95.70;;;;;;5097755;28;20433;-91
2021/12/10 11:20:10;;;;;;;6.80;3.65;;;5.40;95.80;;;;;;5080327;28;20130;-92
2021/12/10 11:22:48;;;;;;;6.82;3.28;;;5.30;94.60;;;;;;5098230;28;20075;-91
2021/12/10 11:25:25;;;;;;;6.10;3.25;;;5.40;94.70;;;;;;5096967;28;20086;-91
2021/12/10 11:28:03;;;;;;;10.05;4.45;;;5.40;95.40;;;;;;5096861;28;20039;-89
2021/12/10 11:30:30;;;;;;;6.07;3.50;;;5.50;95.40;;;;;;5079891;28;20429;-90
2021/12/10 11:33:06;;;;;;;12.68;4.18;;;5.50;95.30;;;;;;5096972;28;20096;-90
2021/12/10 11:35:35;;;;;;;6.72;2.90;;;5.50;95.00;;;;;;5096832;28;20039;-92
2021/12/10 11:38:14;;;;;;;6.18;3.10;;;5.50;94.50;;;;;;5115017;28;20043;-90
2021/12/10 11:41:03;;;;;;;5.07;2.80;;;5.50;93.90;;;;;;5076546;28;20097;-87
2021/12/10 11:48:47;;;;;;;7.78;2.95;;;5.50;94.90;;;;;;5077650;28;20042;-91
2021/12/10 11:51:20;;;;;;;3.72;2.60;;;5.50;94.90;;;;;;5076582;28;20044;-91
2021/12/10 11:53:52;;;;;;;5.78;3.30;;;5.50;94.80;;;;;;5059997;28;20381;-91
2021/12/10 11:56:27;;;;;;;7.70;3.22;;;5.50;94.60;;;;;;5075912;28;20097;-92
2021/12/10 11:59:12;;;;;;;5.90;2.70;;;5.50;94.50;;;;;;5059607;28;20040;-91
2021/12/10 12:01:56;;;;;;;6.18;2.97;;;5.40;94.00;;;;;;5076268;28;20031;-93
2021/12/10 12:04:30;;;;;;;5.20;2.75;;;5.50;94.50;;;;;;5075543;28;20075;-92
2021/12/10 12:07:17;;;;;;;3.95;2.40;;;5.50;94.60;;;;;;5076247;28;20377;-74
2021/12/10 12:09:50;;;;;;;6.38;2.88;;;5.50;93.80;;;;;;5058781;28;20036;-90
2021/12/10 12:12:22;;;;;;;5.03;2.35;;;5.50;94.40;;;;;;5075831;28;20075;-91
2021/12/10 12:14:53;;;;;;;4.45;2.40;;;5.50;94.40;;;;;;5075929;28;20079;-90
2021/12/10 12:17:39;;;;;;;8.27;3.38;;;5.60;94.70;;;;;;5075866;28;20086;-91
2021/12/10 12:20:28;;;;;;;9.45;2.72;;;5.60;94.30;;;;;;5076248;28;20396;-85
2021/12/10 12:25:52;;;;;;;4.30;2.22;;;5.60;94.20;;;;;;5075465;28;20051;-84
2021/12/10 12:28:23;;;;;;;4.57;2.00;;;5.70;94.10;;;;;;5075723;28;20137;-92
2021/12/10 12:31:14;;;;;;;4.13;1.88;;;5.80;94.40;;;;;;5112918;28;20046;-92
2021/12/10 12:33:57;;;;;;;5.68;2.50;;;6.10;93.50;;;;;;5080375;28;20103;-81
2021/12/10 12:37:00;;;;;;;6.53;2.85;;;6.50;92.90;;;;;;5091386;28;20533;-88
2021/12/10 12:39:38;;;;;;;5.40;2.47;;;6.80;92.10;;;;;;5091570;28;20533;-89
2021/12/10 12:42:19;;;;;;;9.13;2.63;;;7.00;92.10;;;;;;5075342;28;20051;-84
2021/12/10 12:44:47;;;;;;;5.60;2.05;;;7.00;90.70;;;;;;5058193;28;20094;-89
2021/12/10 12:47:51;;;;;;;7.93;3.05;;;7.00;90.20;;;;;;5064196;28;20082;-88
2021/12/10 12:50:16;;;;;;;4.35;1.88;;;7.10;90.20;;;;;;5020143;28;20048;-89
2021/12/10 12:52:47;;;;;;;4.63;1.77;;;7.30;90.40;;;;;;5068559;28;20043;-87
2021/12/10 12:55:19;;;;;;;4.78;1.52;;;7.60;89.90;;;;;;5077328;28;20509;-88
2021/12/10 12:58:03;;;;;;;3.50;1.52;;;7.80;88.90;;;;;;5077102;28;20047;-89
2021/12/10 13:00:40;;;;;;;4.20;1.77;;;8.00;85.70;;;;;;5093942;28;20051;-88
2021/12/10 13:03:17;;;;;;;3.65;1.73;;;8.00;87.00;;;;;;5090482;28;20040;-87
2021/12/10 13:05:56;;;;;;;4.10;1.60;;;8.00;86.60;;;;;;5090639;28;20127;-87
2021/12/10 13:08:27;;;;;;;6.45;1.70;;;7.90;86.30;;;;;;5087603;28;20075;-87
2021/12/10 13:11:26;;;;;;;4.30;1.63;;;7.70;86.00;;;;;;5094097;28;20040;-88
2021/12/10 13:14:13;;;;;;;4.53;1.75;;;7.50;85.80;;;;;;5057942;28;20055;-87